Hit Tracker is now ESPN Home Run Tracker! Hit Tracker founder Greg Rybarczyk is now collaborating with the ESPN Stats & Information Group to continue tracking all MLB home runs, and helping baseball fans know "How Far It Really Went!™" Please credit any information on this site to ESPN Stats & Information Group. For more information and analysis on home runs, please contact founder Greg Rybarczyk. E-Mail ESPN Home Run Tracker
Main Page | Ballparks | Park Overlays | Glossary | Highlight Homers | Feedback | Bio | 3 Types of HR's | AAA Home Run Derby Last Updated: September 22, 2017, 11:44 pm PST
If you want to know "How Far It Really Went!", then you've come to the right place! Welcome to the ESPN Home Run Tracker, where you can find accurate, transparently verifiable distances for every home run hit in MLB games. Please also check out the ESPN MLB Scoreboard throughout the 2017 season! Contact us at grybar@hittrackeronline.com.
Season:
Ballpark detail for Rogers Centre
Ballpark # of Home Runs HR per game Avg.
True
Distance
Avg.
Speed
Off
Bat
Avg.
Std.
Dist.
Rogers Centre 198 2.51 405.5 105.8 404.9

Scatter Plot of Home Runs Rogers Centre
 Overlay Ballpark:
Without range rings   With range rings

2017 Season Home Runs for Rogers Centre
Click headers to sort
Date Video Path Hitter Hitter
Team
Pitcher Pitcher
Team
INN ^ Ballpark Type/
Luck
True
Dist.
Speed
Off
Bat
Elev.
Angle
Horiz.
Angle
Apex Impact Due To: Std.
Dist.
#
Parks
Wind Temp. Alt.
04/11/17 Video View Broxton, Keon MIL Happ, J.A. TOR 1 Rogers Centr... PL 388 101.4 30.0 112.1 92 0 0 1 387 30
05/10/17 Video View Bautista, Jose TOR Salazar, Danny CLE 1 Rogers Centr... ND 398 117.6 20.9 128.0 52 0 0 1 397 30
05/11/17 Video View Cruz, Nelson SEA Estrada, Marco TOR 1 Rogers Centr... PL 441 106.7 26.2 89.0 99 0 -1 0 441 30
05/27/17 Video View Choo, Shin-Soo TEX Estrada, Marco TOR 1 Rogers Centr... PL 444 107.5 25.5 89.1 96 0 -1 0 444 30
05/30/17 Video View Cozart, Zack CIN Happ, J.A. TOR 1 Rogers Centr... JE 421 106.1 22.1 89.1 72 0 0 0 421 25
05/30/17 Video View Votto, Joey CIN Happ, J.A. TOR 1 Rogers Centr... PL 447 109.5 23.4 92.5 85 0 0 1 447 30
05/31/17 Video View Votto, Joey CIN Bolsinger, Mike TOR 1 Rogers Centr... JE 410 101.5 26.3 91.0 88 0 -1 0 410 14
06/02/17 Video View Donaldson, Josh TOR Pineda, Michael NYY 1 Rogers Centr... JE 402 107.0 22.1 101.9 64 0 0 0 402 26
06/02/17 Video View Smoak, Justin TOR Pineda, Michael NYY 1 Rogers Centr... ND 442 114.0 27.5 64.5 95 0 -1 1 442 30
06/28/17 Video View Bautista, Jose TOR Miley, Wade BAL 1 Rogers Centr... JE 384 98.6 30.6 74.5 97 0 1 1 382 27
06/30/17 Video View Smoak, Justin TOR Fister, Doug BOS 1 Rogers Centr... JE 391 103.5 23.9 103.8 68 0 0 0 391 22
07/07/17 Video View Correa, Carlos HOU Sanchez, Aaron TOR 1 Rogers Centr... JE 413 102.4 26.8 84.2 91 0 0 1 413 20
07/24/17 Video View Martin, Russell TOR Smith, Chris OAK 1 Rogers Centr... PL 406 103.6 31.8 106.4 115 1 -1 1 405 30
07/27/17 Video View Donaldson, Josh TOR Manaea, Sean OAK 1 Rogers Centr... PL 365 100.3 35.8 113.6 123 -8 1 1 370 30
07/30/17 Video View Pujols, Albert LAA Valdez, Cesar TOR 1 Rogers Centr... JE 414 101.4 29.3 95.6 102 1 4 1 410 22
07/30/17 Video View Carrera, Ezequiel TOR Chavez, Jesse LAA 1 Rogers Centr... ND 390 102.7 32.6 60.0 101 2 5 1 384 30
08/08/17 Video View Donaldson, Josh TOR Sabathia, CC NYY 1 Rogers Centr... PL 421 104.2 27.8 80.8 98 0 1 0 420 29
08/13/17 Video View Donaldson, Josh TOR Kuhl, Chad PIT 1 Rogers Centr... ND 467 116.3 25.9 108.1 96 0 3 1 463 30
08/14/17 Video View Donaldson, Josh TOR Odorizzi, Jake TB 1 Rogers Centr... JE 361 97.1 34.9 71.3 114 -4 1 1 364 22
08/17/17 Video View Donaldson, Josh TOR Archer, Chris TB 1 Rogers Centr... JE 394 112.2 20.7 110.1 54 0 0 0 394 30
09/09/17 Video View Cabrera, Miguel DET Anderson, Brett TOR 1 Rogers Centr... PL 363 101.1 26.2 118.2 66 0 0 0 364 21
09/22/17 Video View Judge, Aaron NYY Estrada, Marco TOR 1 Rogers Centr... ND 463 120.3 24.7 116.0 84 0 0 1 462 30
05/08/17 Video View Goins, Ryan TOR Bauer, Trevor CLE 2 Rogers Centr... ND 413 108.3 28.8 62.4 92 0 0 1 412 30
05/26/17 Video View Travis, Devon TOR Griffin, A.J. TEX 2 Rogers Centr... PL 372 99.7 30.0 116.9 85 0 0 0 372 30
05/29/17 Video View Martin, Russell TOR Bonilla, Lisalverto CIN 2 Rogers Centr... PL 349 96.9 37.2 64.1 119 0 0 1 349 21
06/01/17 Video View Sanchez, Gary NYY Estrada, Marco TOR 2 Rogers Centr... ND 430 117.2 24.1 121.9 71 0 0 1 430 30
06/16/17 Video View Morales, Kendrys TOR Quintana, Jose CHW 2 Rogers Centr... PL 425 103.5 28.4 86.5 104 0 1 0 423 29
06/17/17 Video View Frazier, Todd CHW Stroman, Marcus TOR 2 Rogers Centr... ND 448 112.0 30.0 109.5 117 1 3 1 443 30
06/17/17 Video View Davidson, Matt CHW Stroman, Marcus TOR 2 Rogers Centr... JE 408 107.5 21.4 98.8 63 0 0 0 407 20
07/06/17 Video View Gonzalez, Marwin HOU Liriano, Francisco TOR 2 Rogers Centr... PL 407 114.3 20.9 110.8 57 0 0 1 407 30
07/07/17 Video View Springer, George HOU Sanchez, Aaron TOR 2 Rogers Centr... PL 409 104.9 26.1 75.4 83 0 0 1 409 30
07/09/17 Video View Gurriel, Yulieski HOU Happ, J.A. TOR 2 Rogers Centr... JE 382 100.7 26.0 107.0 72 0 1 0 380 22
07/09/17 Video View Altuve, Jose HOU Happ, J.A. TOR 2 Rogers Centr... PL 393 101.4 30.1 70.0 94 0 2 1 390 30
07/09/17 Video View Correa, Carlos HOU Happ, J.A. TOR 2 Rogers Centr... ND 431 113.3 24.1 111.8 74 0 1 0 429 30
08/09/17 Video View Sanchez, Gary NYY Tepesch, Nick TOR 2 Rogers Centr... JE/L 409 100.8 28.8 94.2 99 0 1 1 408 15
08/09/17 Video View Frazier, Todd NYY Tepesch, Nick TOR 2 Rogers Centr... PL 416 107.7 23.6 102.8 73 0 0 0 416 30
08/14/17 Video View Ramos, Wilson TB Tepesch, Nick TOR 2 Rogers Centr... JE 417 104.0 24.8 84.8 82 0 0 0 416 23
08/26/17 Video View Morales, Kendrys TOR Gee, Dillon MIN 2 Rogers Centr... PL 444 107.6 26.4 86.1 101 0 -1 0 444 30
09/20/17 Video View Perez, Salvador KC Santos, Luis TOR 2 Rogers Centr... PL 397 101.9 31.8 108.7 107 1 1 1 394 30
04/18/17 Video View Smoak, Justin TOR Johnson, Brian BOS 3 Rogers Centr... JE 382 105.6 23.0 109.5 60 0 0 0 383 23
05/12/17 Video View Bautista, Jose TOR Bergman, Christian SEA 3 Rogers Centr... PL 372 100.8 31.2 123.0 87 0 0 0 372 30
05/26/17 Video View Smoak, Justin TOR Bibens-Dirkx, Austin TEX 3 Rogers Centr... JE 391 111.2 20.6 71.4 54 0 0 1 391 25
05/29/17 Video View Tulowitzki, Troy TOR Stephenson, Robert CIN 3 Rogers Centr... PL 411 109.0 23.8 108.4 71 0 0 0 411 30
06/13/17 Video View Featherston, Taylor TB Estrada, Marco TOR 3 Rogers Centr... PL 408 103.1 27.6 77.5 90 0 1 1 407 29
06/13/17 Video View Morrison, Logan TB Estrada, Marco TOR 3 Rogers Centr... PL 443 107.5 25.1 90.0 93 0 0 0 443 30
06/16/17 Video View Pearce, Steve TOR Quintana, Jose CHW 3 Rogers Centr... JE/L 349 107.9 20.8 127.3 45 0 0 0 349 8
08/08/17 Video View Donaldson, Josh TOR Sabathia, CC NYY 3 Rogers Centr... ND 406 114.1 23.6 126.1 63 0 1 1 404 30
08/09/17 Video View Gregorius, Didi NYY Tepesch, Nick TOR 3 Rogers Centr... PL 429 111.0 20.8 82.7 66 0 0 0 428 29
08/11/17 Video View Bautista, Jose TOR Taillon, Jameson PIT 3 Rogers Centr... JE 413 102.5 26.1 84.9 87 0 0 1 412 20
08/15/17 Video View Duda, Lucas TB Estrada, Marco TOR 3 Rogers Centr... PL 378 98.6 33.6 71.8 111 0 1 1 375 25
08/25/17 Video View Smoak, Justin TOR Colon, Bartolo MIN 3 Rogers Centr... PL 436 106.5 28.6 96.8 111 0 0 1 436 30
08/28/17 Video View Nunez, Eduardo BOS Stroman, Marcus TOR 3 Rogers Centr... JE 361 104.2 23.4 118.4 55 0 0 1 361 10
08/30/17 Video View Lopez, Raffy TOR Porcello, Rick BOS 3 Rogers Centr... JE 381 106.1 23.3 67.8 60 0 0 0 381 24
09/08/17 Video View Castellanos, Nick DET Stroman, Marcus TOR 3 Rogers Centr... JE 410 101.9 29.9 84.8 110 -2 -2 1 413 23
09/22/17 Video View Hernandez, Teoscar TOR Tanaka, Masahiro NYY 3 Rogers Centr... ND 428 110.5 32.5 112.9 127 0 1 1 426 30
04/14/17 Video View Smoak, Justin TOR Miley, Wade BAL 4 Rogers Centr... PL 414 110.5 23.2 108.5 68 0 0 0 414 30
05/10/17 Video View Carrera, Ezequiel TOR Otero, Dan CLE 4 Rogers Centr... ND 394 108.8 24.3 62.1 66 0 0 1 394 30
05/28/17 Video View Gallo, Joey TEX Biagini, Joe TOR 4 Rogers Centr... JE 389 108.3 21.5 107.0 57 0 0 0 389 24
05/29/17 Video View Smoak, Justin TOR Stephenson, Robert CIN 4 Rogers Centr... JE 363 108.6 21.2 59.1 48 0 0 0 362 14
05/30/17 Video View Donaldson, Josh TOR Wojciechowski, Asher CIN 4 Rogers Centr... ND 447 115.0 29.2 118.2 106 0 0 1 446 30
05/30/17 Video View Bautista, Jose TOR Wojciechowski, Asher CIN 4 Rogers Centr... ND 438 109.7 30.7 105.7 123 0 -1 1 437 30
05/30/17 Video View Martin, Russell TOR Wojciechowski, Asher CIN 4 Rogers Centr... ND 414 107.4 28.1 112.9 90 0 0 1 413 30
06/01/17 Video View Sanchez, Gary NYY Estrado, Marco TOR 4 Rogers Centr... ND 416 113.0 25.7 123.8 74 0 0 1 416 30
06/28/17 Video View Smoak, Justin TOR Miley, Wade BAL 4 Rogers Centr... JE 426 108.6 20.6 90.0 67 0 0 0 426 28
07/02/17 Video View Betts, Mookie BOS Biagini, Joe TOR 4 Rogers Centr... JE 421 104.7 24.6 95.3 81 0 0 0 420 26
08/15/17 Video View Ramos, Wilson TB Estrada, Marco TOR 4 Rogers Centr... JE 362 104.3 23.7 120.8 56 0 0 0 361 16
08/16/17 Video View Pearce, Steve TOR Faria, Jacob TB 4 Rogers Centr... JE 380 99.2 28.0 73.5 82 0 0 0 380 23
08/27/17 Video View Buxton, Byron MIN Biagini, Joe TOR 4 Rogers Centr... JE 373 107.8 21.9 114.9 53 0 0 0 373 18
08/27/17 Video View Aoki, Nori TOR Gibson, Kyle MIN 4 Rogers Centr... PL 386 102.0 30.5 64.0 92 0 0 1 385 30
09/10/17 Video View Hernandez, Teoscar TOR Sanchez, Anibal DET 4 Rogers Centr... JE 413 101.5 27.6 88.8 96 0 -1 0 412 22
09/11/17 Video View Goins, Ryan TOR Jimenez, Ubaldo BAL 4 Rogers Centr... ND 416 107.7 26.2 71.1 83 0 0 1 416 30
09/22/17 Video View Martin, Russell TOR Tanaka, Masahiro NYY 4 Rogers Centr... JE 373 109.4 21.8 119.7 52 0 0 0 373 26
04/11/17 Video View Santana, Domingo MIL Happ, J.A. TOR 5 Rogers Centr... JE 379 105.6 23.2 68.2 60 0 0 1 379 22
04/14/17 Video View Schoop, Jonathan BAL Sanchez, Aaron TOR 5 Rogers Centr... PL 428 108.2 24.1 100.3 80 0 0 1 428 30
04/14/17 Video View Hardy, J.J. BAL Sanchez, Aaron TOR 5 Rogers Centr... ND 396 105.6 27.2 116.4 79 0 0 1 396 30
04/18/17 Video View Martin, Russell TOR Johnson, Brian BOS 5 Rogers Centr... ND 438 109.2 26.4 102.7 95 0 0 1 438 30
05/11/17 Video View Pearce, Steve TOR De Jong, Chase SEA 5 Rogers Centr... PL 397 106.4 25.0 111.6 71 0 0 1 397 30
05/16/17 Video View Freeman, Freddie ATL Estrada, Marco TOR 5 Rogers Centr... PL 414 103.8 33.5 85.6 137 0 0 1 414 24
05/16/17 Video View Pillar, Kevin TOR Garcia, Jaime ATL 5 Rogers Centr... PL 423 112.0 21.1 101.3 64 0 0 0 423 30
05/26/17 Video View Morales, Kendrys TOR Bibens-Dirkx, Austin TEX 5 Rogers Centr... JE 404 107.4 22.1 78.1 64 0 0 0 405 27
05/27/17 Video View Bautista, Jose TOR Darvish, Yu TEX 5 Rogers Centr... PL 398 105.5 25.4 110.0 74 0 0 0 398 30
05/30/17 Video View Cozart, Zack CIN Barnes, Danny TOR 5 Rogers Centr... PL 425 107.8 24.4 101.2 81 0 0 0 425 30
05/31/17 Video View Maile, Luke TOR Adleman, Tim CIN 5 Rogers Centr... JE 396 100.4 32.5 100.4 117 0 0 1 396 26
06/14/17 Video View Morales, Kendrys TOR Odorizzi, Jake TB 5 Rogers Centr... ND 461 117.8 24.7 69.8 87 0 -1 1 461 30
06/16/17 Video View Cabrera, Melky CHW Beliveau, Jeff TOR 5 Rogers Centr... PL 381 111.2 22.4 126.2 55 0 0 0 381 30
07/07/17 Video View Tulowitzki, Troy TOR Morton, Charlie HOU 5 Rogers Centr... JE 417 107.5 20.8 86.5 65 0 0 0 417 21
07/08/17 Video View Donaldson, Josh TOR Fiers, Mike HOU 5 Rogers Centr... PL 431 108.7 22.9 98.0 75 0 1 0 429 30
07/24/17 Video View Chapman, Matt OAK Liriano, Francisco TOR 5 Rogers Centr... PL 445 109.6 22.7 91.9 82 0 0 0 445 30
07/26/17 Video View Semien, Marcus OAK Estrada, Marco TOR 5 Rogers Centr... JE 363 96.5 34.3 109.1 109 0 0 1 363 16
07/27/17 Video View Morales, Kendrys TOR Manaea, Sean OAK 5 Rogers Centr... PL 447 109.9 22.5 90.6 80 0 1 0 446 30
08/09/17 Video View Bautista, Jose TOR Tanaka, Masahiro NYY 5 Rogers Centr... PL 408 110.5 22.1 107.0 63 0 0 0 408 30
08/15/17 Video View Donaldson, Josh TOR Snell, Blake TB 5 Rogers Centr... PL 409 103.6 28.9 74.7 97 0 0 1 408 30
08/17/17 Video View Donaldson, Josh TOR Archer, Chris TB 5 Rogers Centr... JE 422 109.9 19.7 93.6 61 0 0 0 421 21
08/26/17 Video View Donaldson, Josh TOR Gee, Dillon MIN 5 Rogers Centr... ND 414 108.1 29.6 117.3 97 0 0 1 413 30
08/26/17 Video View Escobar, Eduardo MIN Estrada, Marco TOR 5 Rogers Centr... PL 368 97.6 33.4 69.2 106 0 -1 1 368 23
08/30/17 Video View Ramirez, Hanley BOS Happ, J.A. TOR 5 Rogers Centr... ND 409 106.2 31.1 114.4 106 0 0 1 408 30
09/10/17 Video View Kinsler, Ian DET Happ, J.A. TOR 5 Rogers Centr... JE 377 100.7 26.1 109.0 72 0 0 0 377 19
09/10/17 Video View Hernandez, Teoscar TOR Sanchez, Anibal DET 5 Rogers Centr... PL 356 95.6 33.5 66.8 99 0 0 1 356 17
09/11/17 Video View Trumbo, Mark BAL Estrada, Marco TOR 5 Rogers Centr... PL 405 102.9 32.1 103.4 118 0 -2 1 405 30
04/12/17 Video View Villar, Jonathan MIL Stroman, Marcus TOR 6 Rogers Centr... PL 429 105.7 25.7 84.2 91 0 -1 0 429 27
04/14/17 Video View Davis, Chris BAL Sanchez, Aaron TOR 6 Rogers Centr... JE 418 103.6 25.0 92.2 85 0 0 1 418 22
04/16/17 Video View Mancini, Trey BAL Tepera, Ryan TOR 6 Rogers Centr... ND 410 110.5 26.1 121.2 76 0 0 0 409 30
04/29/17 Video View Smoak, Justin TOR Andriese, Matt TB 6 Rogers Centr... PL 423 103.2 28.8 92.3 107 0 -1 0 422 27
05/13/17 Video View Morales, Kendrys TOR Zych, Tony SEA 6 Rogers Centr... PL 426 108.4 23.2 80.7 76 0 0 0 426 29
05/14/17 Video View Smoak, Justin TOR Pazos, James SEA 6 Rogers Centr... JE 412 114.0 18.5 98.9 53 0 0 1 412 22
05/15/17 Video View Freeman, Freddie ATL Campos, Leonel TOR 6 Rogers Centr... JE 408 101.2 32.0 92.8 121 0 0 1 407 17
05/29/17 Video View Duvall, Adam CIN Stroman, Marcus TOR 6 Rogers Centr... JE 361 100.6 25.9 62.5 64 0 0 0 360 18
06/02/17 Video View Judge, Aaron NYY Liriano, Francisco TOR 6 Rogers Centr... ND 448 111.9 25.0 77.1 90 0 -1 1 448 30
06/02/17 Video View Donaldson, Josh TOR Holder, Jonathan NYY 6 Rogers Centr... PL 414 105.7 26.3 104.8 85 0 -1 1 414 30
06/02/17 Video View Castro, Starlin NYY Barnes, Danny TOR 6 Rogers Centr... JE 393 110.8 21.0 71.5 55 0 0 0 394 27
06/04/17 Video View Smoak, Justin TOR Severino, Luis NYY 6 Rogers Centr... PL 430 104.5 29.5 90.8 115 0 -1 1 430 30
06/17/17 Video View Abreu, Jose CHW Stroman, Marcus TOR 6 Rogers Centr... JE 417 111.9 18.4 94.2 55 0 -1 0 418 17
06/18/17 Video View Martin, Russell TOR Shields, James CHW 6 Rogers Centr... JE 409 101.6 27.8 83.5 95 0 0 1 409 23
06/30/17 Video View Tulowitzki, Troy TOR Hembree, Heath BOS 6 Rogers Centr... PL 368 97.3 32.5 112.3 98 0 1 1 366 21
07/02/17 Video View Betts, Mookie BOS Biagini, Joe TOR 6 Rogers Centr... JE 362 108.2 22.0 126.7 50 0 0 0 361 26
07/06/17 Video View Martin, Russell TOR Diaz, Dayan HOU 6 Rogers Centr... PL 371 97.5 32.4 69.6 100 0 0 0 370 23
07/09/17 Video View Gattis, Evan HOU Harrell, Lucas TOR 6 Rogers Centr... ND 406 117.9 21.4 127.2 55 0 2 1 404 30
07/29/17 Video View Montero, Miguel TOR Scribner, Troy LAA 6 Rogers Centr... JE 421 105.5 23.3 85.7 76 0 0 0 420 23
07/30/17 Video View Pujols, Albert LAA Bolsinger, Mike TOR 6 Rogers Centr... ND 447 112.7 24.3 104.4 82 0 2 1 444 30
08/13/17 Video View Barney, Darwin TOR LeBlanc, Wade PIT 6 Rogers Centr... PL 401 100.9 31.7 102.6 110 0 3 1 397 30
09/09/17 Video View Pillar, Kevin TOR Saupold, Warwick DET 6 Rogers Centr... PL 361 99.1 38.0 114.2 131 9 -2 1 353 14
09/19/17 Video View Barney, Darwin TOR Kennedy, Ian KC 6 Rogers Centr... PL 371 102.5 26.3 119.2 67 0 0 1 370 29
09/20/17 Video View Merrifield, Whit KC Ramirez, Carlos TOR 6 Rogers Centr... ND 420 110.8 26.0 115.7 79 0 0 0 419 30
09/20/17 Video View Moustakas, Mike KC Ramirez, Carlos TOR 6 Rogers Centr... PL 370 101.8 26.2 63.2 67 0 0 0 370 26
09/22/17 Video View Goins, Ryan TOR Tanaka, Masahiro NYY 6 Rogers Centr... PL 406 103.1 29.4 74.4 99 0 0 0 405 30
04/18/17 Video View Betts, Mookie BOS Smith, Joe TOR 7 Rogers Centr... ND 429 116.4 22.5 113.5 67 0 0 1 429 30
04/28/17 Video View Pillar, Kevin TOR Pruitt, Austin TB 7 Rogers Centr... JE 350 105.4 22.3 126.9 49 0 0 0 350 11
05/11/17 Video View Smoak, Justin TOR Gaviglio, Sam SEA 7 Rogers Centr... JE 407 102.9 25.3 81.6 81 0 0 1 407 27
05/13/17 Video View Bautista, Jose TOR Vincent, Nick SEA 7 Rogers Centr... PL 438 106.7 27.1 95.6 102 0 0 0 438 30
05/14/17 Video View Dyson, Jarrod SEA Leone, Dominic TOR 7 Rogers Centr... PL 389 104.5 25.9 66.8 72 0 0 1 388 30
05/16/17 Video View Swanson, Dansby ATL Barnes, Danny TOR 7 Rogers Centr... PL 425 104.6 25.4 92.3 89 0 -1 0 425 27
05/31/17 Video View Travis, Devon TOR Peralta, Wandy CIN 7 Rogers Centr... PL 353 99.5 38.6 112.2 137 0 0 1 352 12
06/01/17 Video View Morales, Kendrys TOR Sabathia, CC NYY 7 Rogers Centr... JE 411 102.1 27.8 83.3 97 0 -2 1 412 25
06/18/17 Video View Morales, Kendrys TOR Jennings, Dan CHW 7 Rogers Centr... ND 452 116.3 33.3 105.0 162 0 -1 0 452 30
07/02/17 Video View Ramirez, Hanley BOS Beliveau, Jeff TOR 7 Rogers Centr... PL 418 103.9 30.3 101.4 111 1 1 1 415 30
07/07/17 Video View Gattis, Evan HOU Bolsinger, Mike TOR 7 Rogers Centr... PL 425 113.0 21.8 104.6 66 0 0 0 426 30
07/07/17 Video View Springer, George HOU Bolsinger, Mike TOR 7 Rogers Centr... JE 407 109.2 20.8 79.6 60 0 0 0 406 26
07/08/17 Video View Tulowitzki, Troy TOR Devenski, Chris HOU 7 Rogers Centr... PL 411 103.8 33.4 100.8 131 -1 2 1 408 30
07/09/17 Video View Correa, Carlos HOU Tepera, Ryan TOR 7 Rogers Centr... PL 423 103.0 27.7 91.2 99 0 1 1 421 28
08/10/17 Video View Bautista, Jose TOR Shreve, Chasen NYY 7 Rogers Centr... PL 379 100.3 33.9 113.7 111 1 0 1 376 30
08/13/17 Video View Smoak, Justin TOR LeBlanc, Wade PIT 7 Rogers Centr... PL 420 104.4 26.5 99.2 89 0 1 0 418 30
08/27/17 Video View Buxton, Byron MIN Dermody, Matt TOR 7 Rogers Centr... ND 392 104.6 29.6 120.8 87 0 0 1 391 30
08/28/17 Video View Vazquez, Christian BOS Barnes, Danny TOR 7 Rogers Centr... ND 392 104.8 34.4 115.9 122 -1 -1 1 392 30
08/29/17 Video View Ramirez, Hanley BOS Leone, Dominic TOR 7 Rogers Centr... PL 419 102.7 27.3 88.3 97 0 0 1 418 26
08/30/17 Video View Moreland, Mitch BOS Koehler, Tom TOR 7 Rogers Centr... ND 422 110.6 28.1 61.7 90 0 0 1 421 30
09/08/17 Video View Kinsler, Ian DET Barnes, Danny TOR 7 Rogers Centr... PL 384 108.6 23.9 121.0 61 0 -1 0 385 30
04/16/17 Video View Mancini, Trey BAL Dermody, Matt TOR 8 Rogers Centr... PL 422 103.9 25.4 88.0 88 0 0 1 421 27
04/16/17 Video View Machado, Manny BAL Dermody, Matt TOR 8 Rogers Centr... JE 339 95.3 29.6 55.9 70 0 0 0 339 18
04/16/17 Video View Gentry, Craig BAL Dermody, Matt TOR 8 Rogers Centr... ND 402 104.4 32.0 111.9 111 0 0 1 401 30
04/28/17 Video View Dickerson, Corey TB Stroman, Marcus TOR 8 Rogers Centr... PL 420 104.6 26.2 98.5 89 0 0 1 420 30
04/28/17 Video View Longoria, Evan TB Grilli, Jason TOR 8 Rogers Centr... JE 420 105.0 23.3 89.6 77 0 0 0 420 25
04/28/17 Video View Morrison, Logan TB Leone, Dominic TOR 8 Rogers Centr... PL 434 105.4 27.3 87.8 103 0 0 0 434 30
05/09/17 Video View Gomes, Yan CLE Loup, Aaron TOR 8 Rogers Centr... JE 382 98.9 30.1 106.8 93 0 0 0 382 26
05/30/17 Video View Morales, Kendrys TOR Wood, Blake CIN 8 Rogers Centr... ND 435 115.0 21.8 74.5 68 0 0 0 435 30
06/01/17 Video View Carrera, Ezequiel TOR Green, Chad NYY 8 Rogers Centr... ND 413 113.1 24.2 60.5 69 0 0 1 413 30
06/03/17 Video View Gardner, Brett NYY Grilli, Jason TOR 8 Rogers Centr... PL 390 105.0 24.3 70.7 67 0 0 0 390 29
06/03/17 Video View Holliday, Matt NYY Grilli, Jason TOR 8 Rogers Centr... ND 452 110.2 24.2 95.8 90 0 1 1 450 30
06/03/17 Video View Castro, Starlin NYY Grilli, Jason TOR 8 Rogers Centr... JE 394 99.4 31.5 100.9 107 1 1 1 392 23
06/03/17 Video View Gregorius, Didi NYY Grilli, Jason TOR 8 Rogers Centr... PL 361 97.3 30.1 63.4 81 0 1 1 360 24
06/04/17 Video View Donaldson, Josh TOR Clippard, Tyler NYY 8 Rogers Centr... JE 392 100.5 28.3 75.7 88 0 0 1 392 27
06/14/17 Video View Morrison, Logan TB Smith, Joe TOR 8 Rogers Centr... PL 400 104.4 25.6 106.3 77 0 -1 0 400 30
06/14/17 Video View Martin, Russell TOR Alvarado, Jose TB 8 Rogers Centr... PL 423 104.4 28.0 97.9 101 0 -1 1 423 30
07/06/17 Video View Beltran, Carlos HOU Tepera, Ryan TOR 8 Rogers Centr... PL 404 102.1 31.1 76.9 110 0 0 1 403 29
08/17/17 Video View Smoak, Justin TOR Hunter, Tommy TB 8 Rogers Centr... PL 417 103.8 32.2 82.6 127 0 0 1 416 29
08/26/17 Video View Kepler, Max MIN Tepera, Ryan TOR 8 Rogers Centr... PL 388 99.6 32.1 73.9 107 1 -1 1 386 28
09/08/17 Video View Bautista, Jose TOR Wilson, Alex DET 8 Rogers Centr... ND 406 109.4 26.2 118.7 77 0 -1 1 407 30
09/08/17 Video View Urena, Richard TOR Wilson, Alex DET 8 Rogers Centr... JE 375 99.8 27.1 109.1 76 0 -1 0 376 21
09/12/17 Video View Beckham, Tim BAL Biagini, Joe TOR 8 Rogers Centr... JE 402 105.0 23.0 100.3 68 0 0 0 402 21
09/19/17 Video View Gordon, Alex KC Tepera, Ryan TOR 8 Rogers Centr... JE 407 106.2 22.4 80.7 67 0 0 0 407 26
04/14/17 Video View Smith, Seth BAL Grilli, Jason TOR 9 Rogers Centr... ND 404 108.8 25.2 64.3 72 0 0 0 404 30
04/15/17 Video View Morales, Kendrys TOR Wilson, Tyler BAL 9 Rogers Centr... ND 448 109.0 28.5 81.5 115 0 -1 1 448 30
04/16/17 Video View Pillar, Kevin TOR Nuno, Vidal BAL 9 Rogers Centr... PL 423 104.2 25.3 92.0 88 0 0 0 423 27
04/18/17 Video View Carrera, Ezequiel TOR Barnes, Matt BOS 9 Rogers Centr... JE 355 97.1 29.0 117.2 75 0 0 0 355 11
04/20/17 Video View Morales, Kendrys TOR Kimbrel, Craig BOS 9 Rogers Centr... PL 422 103.2 28.7 87.8 106 0 0 1 422 28
04/28/17 Video View Norris, Derek TB Leone, Dominic TOR 9 Rogers Centr... JE 374 97.4 30.6 107.3 93 0 0 1 373 19
05/14/17 Video View Pillar, Kevin TOR Diaz, Edwin SEA 9 Rogers Centr... PL 410 106.1 25.7 106.5 80 0 0 0 410 30
05/15/17 Video View Smoak, Justin TOR Collmenter, Josh ATL 9 Rogers Centr... PL 386 103.1 26.2 68.9 74 0 0 0 386 28
05/26/17 Video View Odor, Rougned TEX Smith, Joe TOR 9 Rogers Centr... ND 408 107.3 27.8 64.0 86 0 0 0 407 30
05/31/17 Video View Schebler, Scott CIN Osuna, Roberto TOR 9 Rogers Centr... PL 404 102.4 32.2 77.8 119 0 -1 1 404 29
06/13/17 Video View Dickerson, Corey TB Loup, Aaron TOR 9 Rogers Centr... ND 450 110.7 27.1 78.1 104 0 0 0 450 30
06/16/17 Video View Smoak, Justin TOR Petricka, Jake CHW 9 Rogers Centr... JE 413 104.3 24.4 97.6 78 0 0 0 412 22
06/27/17 Video View Tulowitzki, Troy TOR Brach, Brad BAL 9 Rogers Centr... PL 430 109.1 22.0 96.1 73 0 0 0 431 29
07/01/17 Video View Pearce, Steve TOR Scott, Robby BOS 9 Rogers Centr... JE 401 108.2 21.5 102.6 60 0 1 0 400 27
07/07/17 Video View Carrera, Ezequiel TOR Martes, Francis HOU 9 Rogers Centr... PL 402 103.8 29.3 70.2 95 0 -1 1 402 30
07/08/17 Video View Gonzalez, Marwin HOU Biagini, Joe TOR 9 Rogers Centr... ND 403 106.2 29.3 61.3 90 0 1 1 402 30
07/09/17 Video View Carrera, Ezequiel TOR Martes, Francis HOU 9 Rogers Centr... PL 396 102.7 32.7 69.4 113 0 2 1 393 30
07/26/17 Video View Morales, Kendrys TOR Casilla, Santiago OAK 9 Rogers Centr... PL 360 103.4 39.0 65.8 149 0 -1 2 359 28
07/26/17 Video View Smoak, Justin TOR Casilla, Santiago OAK 9 Rogers Centr... ND 437 109.0 30.8 75.9 124 0 0 1 436 30
07/27/17 Video View Morales, Kendrys TOR Treinen, Blake OAK 9 Rogers Centr... PL 438 105.8 26.6 89.5 98 0 1 0 436 30
07/28/17 Video View Cron, C.J. LAA Smith, Chris TOR 9 Rogers Centr... PL 410 111.5 21.6 106.3 61 0 0 0 410 30
07/28/17 Video View Smoak, Justin TOR Bedrosian, Cam LAA 9 Rogers Centr... PL 377 100.0 35.0 72.0 123 -1 -1 1 377 26
07/30/17 Video View Pillar, Kevin TOR Pounders, Brooks LAA 9 Rogers Centr... JE 404 105.2 23.5 101.3 69 0 1 0 403 26
07/30/17 Video View Pearce, Steve TOR Norris, Bud LAA 9 Rogers Centr... PL 371 98.6 30.6 115.4 86 0 2 1 369 27
08/12/17 Video View Mercer, Jordy PIT Campos, Leonel TOR 9 Rogers Centr... JE 398 100.3 29.5 100.5 99 0 -1 0 398 26
08/27/17 Video View Buxton, Byron MIN Mayza, Tim TOR 9 Rogers Centr... PL 381 109.3 22.9 121.5 57 0 0 0 380 30
08/28/17 Video View Smoak, Justin TOR Kimbrel, Craig BOS 9 Rogers Centr... PL 422 109.4 23.9 75.1 75 0 0 0 422 30
09/20/17 Video View Lopez, Raffy TOR Herrera, Kelvin KC 9 Rogers Centr... JE 412 101.9 26.1 92.6 87 0 0 1 411 17
07/27/17 Video View Pearce, Steve TOR Hendriks, Liam OAK 10 Rogers Centr... ND 409 112.9 24.6 125.0 68 0 1 0 408 30


About HitTracker | Contact Us
© 2006-2017 HitTrackerOnline